Time;durP1;ratioP1;P1;durP2;ratioP2;P2;SDS_P1;SDS_P2;PMS_P1;PMS_P2;Temp;Humidity;BMP_temperature;BMP_pressure;BME280_temperature;BME280_humidity;BME280_pressure;Samples;Min_cycle;Max_cycle;Signal;HPM_P1;HPM_P2
2021/04/17 00:09:57;;;;;;;13.38;7.57;;;2.50;99.90;;;;;;20750980;28;20034;-77
2021/04/17 00:19:58;;;;;;;10.95;6.72;;;2.60;99.90;;;;;;20731323;28;20496;-79
2021/04/17 00:29:58;;;;;;;16.30;7.27;;;2.50;99.90;;;;;;20750064;28;20124;-78
2021/04/17 00:39:59;;;;;;;11.70;7.23;;;2.50;99.90;;;;;;20824360;23;20303;-75
2021/04/17 00:50:00;;;;;;;11.70;7.13;;;2.50;99.90;;;;;;20811411;28;20383;-74
2021/04/17 01:00:04;;;;;;;;;;;2.30;99.90;;;;;;20785579;28;20060;-74
2021/04/17 01:10:07;;;;;;;12.10;7.25;;;2.20;99.90;;;;;;20748138;28;20303;-74
2021/04/17 01:20:23;;;;;;;14.50;7.78;;;1.80;99.90;;;;;;20742481;28;20504;-74
2021/04/17 01:30:24;;;;;;;15.45;8.13;;;1.80;99.90;;;;;;20741004;28;20504;-74
2021/04/17 01:40:27;;;;;;;14.40;8.35;;;1.90;99.90;;;;;;20740988;28;20057;-74
2021/04/17 01:50:30;;;;;;;12.90;7.55;;;1.90;99.90;;;;;;20740351;28;20527;-74
2021/04/17 02:00:31;;;;;;;12.85;7.55;;;1.20;99.90;;;;;;20750031;28;20045;-74
2021/04/17 02:10:32;;;;;;;;;;;0.90;99.90;;;;;;20756031;28;20552;-74
2021/04/17 02:20:45;;;;;;;17.38;8.77;;;0.90;99.90;;;;;;20753350;28;20051;-74
2021/04/17 02:30:45;;;;;;;15.90;8.32;;;0.70;99.90;;;;;;20753214;28;20045;-74
2021/04/17 02:40:46;;;;;;;18.60;8.55;;;0.70;99.90;;;;;;20753838;28;20034;-74
2021/04/17 02:50:47;;;;;;;;;;;0.40;99.90;;;;;;20753148;28;20100;-74
2021/04/17 03:00:48;;;;;;;15.23;8.25;;;0.30;99.90;;;;;;20751998;28;19913;-74
2021/04/17 03:10:49;;;;;;;15.88;8.38;;;0.00;99.90;;;;;;20750234;28;20087;-74
2021/04/17 03:20:50;;;;;;;20.80;9.75;;;0.00;99.90;;;;;;20750252;28;20602;-74
2021/04/17 03:30:51;;;;;;;19.30;9.90;;;-0.10;99.90;;;;;;20749286;28;20040;-74
2021/04/17 03:40:53;;;;;;;23.77;9.77;;;-0.20;99.90;;;;;;20747340;28;20049;-74
2021/04/17 03:50:53;;;;;;;16.63;8.40;;;-0.40;99.90;;;;;;20746630;28;20077;-74
2021/04/17 04:00:54;;;;;;;18.40;9.27;;;-0.40;99.90;;;;;;20747075;28;20497;-74
2021/04/17 04:10:56;;;;;;;16.75;9.55;;;-0.60;99.90;;;;;;20746104;28;20033;-74
2021/04/17 04:20:56;;;;;;;21.17;10.27;;;-0.60;99.90;;;;;;20744456;28;20127;-73
2021/04/17 04:30:58;;;;;;;22.45;10.48;;;-0.70;99.90;;;;;;20748770;28;20488;-73
2021/04/17 04:40:59;;;;;;;22.35;10.43;;;-0.80;99.90;;;;;;20807529;28;20515;-74
2021/04/17 04:51:00;;;;;;;19.95;9.60;;;-0.80;99.90;;;;;;20819281;28;20059;-74
2021/04/17 05:01:00;;;;;;;26.92;10.38;;;-0.90;99.90;;;;;;20820563;28;20461;-74
2021/04/17 05:11:01;;;;;;;28.15;10.95;;;-1.00;99.90;;;;;;20808032;28;20576;-74
2021/04/17 05:21:02;;;;;;;20.20;10.73;;;-0.80;99.90;;;;;;20770382;28;20068;-73
2021/04/17 05:31:04;;;;;;;20.25;9.93;;;-0.60;99.90;;;;;;20823723;28;20050;-74
2021/04/17 05:41:05;;;;;;;19.60;10.25;;;-0.30;99.90;;;;;;20775451;28;20034;-74
2021/04/17 05:51:06;;;;;;;19.20;9.55;;;0.00;99.90;;;;;;20757027;28;20088;-74
2021/04/17 06:01:06;;;;;;;17.83;10.02;;;0.50;99.90;;;;;;20805021;28;20061;-74
2021/04/17 06:11:07;;;;;;;;;;;1.30;99.90;;;;;;20835326;28;20045;-74
2021/04/17 06:21:08;;;;;;;17.35;9.88;;;2.10;99.90;;;;;;20835391;28;19919;-74
2021/04/17 06:31:09;;;;;;;19.27;10.32;;;2.60;99.90;;;;;;20834984;23;20048;-75
2021/04/17 06:41:11;;;;;;;17.53;10.27;;;3.40;99.90;;;;;;20751625;28;20133;-75
2021/04/17 06:51:17;;;;;;;19.63;10.70;;;3.70;99.90;;;;;;20735807;28;20082;-75
2021/04/17 07:01:18;;;;;;;21.65;10.70;;;4.00;99.90;;;;;;20734319;28;20088;-75
2021/04/17 07:11:19;;;;;;;18.93;10.70;;;4.60;99.90;;;;;;20735752;28;20128;-77
2021/04/17 07:21:20;;;;;;;18.70;10.73;;;5.00;99.90;;;;;;20752780;28;20451;-78
2021/04/17 07:31:22;;;;;;;26.33;12.17;;;5.40;99.90;;;;;;20757021;28;20037;-77
2021/04/17 07:41:23;;;;;;;25.80;13.30;;;6.60;99.90;;;;;;20756469;28;20038;-78
2021/04/17 07:51:24;;;;;;;20.80;11.67;;;7.50;99.90;;;;;;20746246;28;20041;-78
2021/04/17 08:01:28;;;;;;;20.20;10.17;;;8.50;99.90;;;;;;20753454;28;20034;-80
2021/04/17 08:11:30;;;;;;;21.25;12.15;;;8.70;99.90;;;;;;20752648;28;20038;-79
2021/04/17 08:21:34;;;;;;;21.67;12.90;;;9.10;99.90;;;;;;20765184;28;20064;-79
2021/04/17 08:31:38;;;;;;;26.30;13.20;;;9.30;99.90;;;;;;20755487;28;20128;-78
2021/04/17 08:41:43;;;;;;;22.70;12.98;;;9.60;99.90;;;;;;20743441;28;20030;-79
2021/04/17 08:51:44;;;;;;;21.35;12.25;;;10.60;99.90;;;;;;20745604;28;20400;-78
2021/04/17 09:01:46;;;;;;;24.03;12.37;;;10.20;99.90;;;;;;20732490;28;20105;-78
2021/04/17 09:11:52;;;;;;;21.67;12.43;;;10.00;99.90;;;;;;20770759;28;20520;-78
2021/04/17 09:21:53;;;;;;;22.63;10.82;;;9.80;99.90;;;;;;20755711;28;20096;-78
2021/04/17 09:31:57;;;;;;;20.53;10.93;;;10.10;99.90;;;;;;20775619;28;20037;-79
2021/04/17 09:42:04;;;;;;;16.63;10.32;;;11.90;99.90;;;;;;20751651;28;20116;-78
2021/04/17 09:52:06;;;;;;;17.38;10.27;;;12.70;99.90;;;;;;20776616;28;20042;-78
2021/04/17 10:02:09;;;;;;;16.13;10.00;;;10.90;99.90;;;;;;20771005;28;20069;-78
2021/04/17 10:12:13;;;;;;;21.70;10.25;;;9.60;99.90;;;;;;20768526;28;20038;-78
2021/04/17 10:22:20;;;;;;;16.50;9.52;;;11.10;99.90;;;;;;20745189;28;20042;-79
2021/04/17 10:32:21;;;;;;;16.90;9.90;;;13.60;99.90;;;;;;20746010;28;20041;-78
2021/04/17 10:42:22;;;;;;;13.27;8.13;;;12.60;99.90;;;;;;20741785;28;20044;-78
2021/04/17 10:52:32;;;;;;;12.88;7.70;;;13.80;98.50;;;;;;20746189;28;20129;-78
2021/04/17 11:02:36;;;;;;;16.20;9.07;;;13.60;98.10;;;;;;20743161;28;20057;-77
2021/04/17 11:12:38;;;;;;;14.30;8.68;;;11.00;99.90;;;;;;20746914;28;20034;-77
2021/04/17 11:22:39;;;;;;;;;;;10.70;99.90;;;;;;20749395;28;20045;-77
2021/04/17 11:32:40;;;;;;;13.13;7.23;;;10.40;99.90;;;;;;20754362;28;19921;-77
2021/04/17 11:42:41;;;;;;;11.05;6.15;;;10.10;99.90;;;;;;20736215;28;20280;-75
2021/04/17 11:52:41;;;;;;;11.67;6.40;;;10.20;99.90;;;;;;20739249;28;20050;-75
2021/04/17 12:02:42;;;;;;;10.20;5.65;;;10.50;99.90;;;;;;20726942;28;20108;-76
2021/04/17 12:12:45;;;;;;;8.07;5.72;;;11.20;99.90;;;;;;20712569;28;20121;-76
2021/04/17 12:22:46;;;;;;;152.23;62.63;;;11.40;99.90;;;;;;20705021;28;20046;-75
2021/04/17 12:32:47;;;;;;;17.35;8.05;;;10.40;99.90;;;;;;20760077;22;20067;-74
2021/04/17 12:42:47;;;;;;;129.97;59.67;;;9.40;99.90;;;;;;20931820;28;20105;-74
2021/04/17 12:52:49;;;;;;;11.90;6.20;;;9.40;99.90;;;;;;20893934;28;20032;-74
2021/04/17 13:02:50;;;;;;;9.13;5.30;;;9.90;99.90;;;;;;20914125;28;20048;-74
2021/04/17 13:12:51;;;;;;;10.88;6.45;;;10.20;99.90;;;;;;20866519;28;20120;-74
2021/04/17 13:22:54;;;;;;;15.63;6.53;;;10.20;99.90;;;;;;20855303;28;20060;-74
2021/04/17 13:32:56;;;;;;;62.28;22.63;;;10.00;99.90;;;;;;20900025;28;20461;-74
2021/04/17 13:42:57;;;;;;;8.82;6.15;;;10.40;99.90;;;;;;20909153;28;20055;-74
2021/04/17 13:52:58;;;;;;;9.73;5.95;;;10.10;99.90;;;;;;20900025;28;20649;-74
2021/04/17 14:02:58;;;;;;;12.95;6.38;;;11.30;99.90;;;;;;20893635;28;20094;-74
2021/04/17 14:13:00;;;;;;;10.20;5.63;;;11.10;99.90;;;;;;20898965;28;20518;-74
2021/04/17 14:23:02;;;;;;;;;;;11.40;99.90;;;;;;20898849;28;20045;-74
2021/04/17 14:33:03;;;;;;;9.75;5.72;;;11.70;99.90;;;;;;20915285;28;19969;-74
2021/04/17 14:43:04;;;;;;;12.43;7.40;;;12.50;99.90;;;;;;20979644;28;20052;-75
2021/04/17 14:53:05;;;;;;;13.30;6.03;;;13.00;99.90;;;;;;20907349;28;20045;-74
2021/04/17 15:03:06;;;;;;;9.55;6.15;;;11.40;99.90;;;;;;20894893;28;20224;-75
2021/04/17 15:13:07;;;;;;;9.75;5.65;;;11.70;99.90;;;;;;20896145;28;20063;-75
2021/04/17 15:23:08;;;;;;;8.95;5.85;;;11.50;99.90;;;;;;20895524;28;20044;-75
2021/04/17 15:33:09;;;;;;;11.30;5.17;;;11.10;99.90;;;;;;20893543;28;20052;-75
2021/04/17 15:43:10;;;;;;;6.50;5.03;;;10.90;99.90;;;;;;20892232;28;20064;-74
2021/04/17 15:53:12;;;;;;;13.07;6.17;;;10.60;99.90;;;;;;20893668;28;20045;-74
2021/04/17 16:23:33;;;;;;;8.82;5.15;;;10.20;99.90;;;;;;20899538;28;20041;-74
2021/04/17 16:33:38;;;;;;;9.85;5.80;;;10.40;99.90;;;;;;20889951;28;20598;-73
2021/04/17 16:43:40;;;;;;;8.70;5.50;;;10.30;99.90;;;;;;20888565;28;20060;-74
2021/04/17 16:53:41;;;;;;;16.00;8.85;;;10.30;99.90;;;;;;20888904;28;20040;-74
2021/04/17 17:03:42;;;;;;;18.52;7.40;;;10.20;99.90;;;;;;20870333;28;20041;-74
2021/04/17 17:13:44;;;;;;;35.72;22.50;;;10.10;99.90;;;;;;20910278;28;20499;-74
2021/04/17 17:23:47;;;;;;;9.88;5.78;;;10.10;99.90;;;;;;20948902;28;20122;-74
2021/04/17 17:33:47;;;;;;;9.38;5.78;;;9.80;99.90;;;;;;20902106;28;20471;-74
2021/04/17 17:43:48;;;;;;;13.70;6.50;;;9.50;99.90;;;;;;20903020;28;20041;-74
2021/04/17 17:53:49;;;;;;;14.63;6.47;;;9.30;99.90;;;;;;20902335;28;20036;-74
2021/04/17 18:03:51;;;;;;;9.00;5.30;;;9.10;99.90;;;;;;20885112;28;20037;-75
2021/04/17 18:13:52;;;;;;;11.75;5.90;;;8.90;99.90;;;;;;20912786;28;20040;-74
2021/04/17 18:23:53;;;;;;;9.83;5.63;;;8.80;99.90;;;;;;20906295;28;20099;-75
2021/04/17 18:33:55;;;;;;;9.50;5.72;;;8.70;99.90;;;;;;20916281;22;20045;-78
2021/04/17 18:43:56;;;;;;;11.07;5.60;;;8.50;99.90;;;;;;20890282;28;20419;-79
2021/04/17 18:53:57;;;;;;;8.70;5.23;;;8.20;99.90;;;;;;20776804;28;20061;-79
2021/04/17 19:04:01;;;;;;;8.75;5.43;;;8.20;99.90;;;;;;20821077;28;20052;-79
2021/04/17 19:14:03;;;;;;;11.18;6.35;;;8.00;99.90;;;;;;20817203;28;20048;-79
2021/04/17 19:24:05;;;;;;;8.35;5.75;;;7.20;99.90;;;;;;20828731;28;20495;-78
2021/04/17 19:34:07;;;;;;;14.05;6.40;;;6.80;99.90;;;;;;20844664;28;20017;-78
2021/04/17 19:44:08;;;;;;;12.68;6.63;;;6.50;99.90;;;;;;20870410;28;20045;-78
2021/04/17 19:54:09;;;;;;;13.73;6.50;;;6.50;99.90;;;;;;20786675;28;20115;-80
2021/04/17 20:04:10;;;;;;;11.25;6.20;;;6.60;99.90;;;;;;20853144;28;20045;-80
2021/04/17 20:14:12;;;;;;;9.90;5.70;;;6.80;99.90;;;;;;20846535;28;20050;-81
2021/04/17 20:24:14;;;;;;;11.00;5.67;;;6.90;99.90;;;;;;20831322;28;20111;-79
2021/04/17 20:34:15;;;;;;;17.63;5.72;;;7.10;99.90;;;;;;20812808;28;20052;-80
2021/04/17 20:44:16;;;;;;;9.37;4.57;;;7.20;99.90;;;;;;20816043;28;20037;-77
2021/04/17 20:54:17;;;;;;;16.27;5.30;;;7.20;99.90;;;;;;20822984;28;20037;-78
2021/04/17 21:04:20;;;;;;;9.25;5.25;;;7.00;99.90;;;;;;20829617;28;20037;-78
2021/04/17 21:14:21;;;;;;;8.95;5.40;;;7.00;99.90;;;;;;20839575;28;20065;-78
2021/04/17 21:24:23;;;;;;;11.17;4.93;;;6.80;99.90;;;;;;20779624;28;20038;-77
2021/04/17 21:34:24;;;;;;;10.75;5.80;;;6.70;99.90;;;;;;20787082;28;20304;-78
2021/04/17 21:44:27;;;;;;;13.63;6.57;;;6.80;99.90;;;;;;20795500;28;20539;-78
2021/04/17 21:54:27;;;;;;;11.73;5.60;;;6.80;99.90;;;;;;20788898;28;20034;-78
2021/04/17 22:04:28;;;;;;;8.77;4.93;;;6.50;99.90;;;;;;20795785;28;20041;-78
2021/04/17 22:14:29;;;;;;;9.27;5.73;;;6.40;99.90;;;;;;20803936;28;20045;-78
2021/04/17 22:24:30;;;;;;;9.93;6.23;;;6.20;99.90;;;;;;20807971;28;20049;-77
2021/04/17 22:34:31;;;;;;;11.87;4.07;;;6.30;99.90;;;;;;20803505;28;20503;-77
2021/04/17 22:44:32;;;;;;;10.33;5.67;;;6.50;99.90;;;;;;20777328;28;20519;-78
2021/04/17 22:54:32;;;;;;;11.37;4.57;;;6.40;99.90;;;;;;20793775;28;20119;-78
2021/04/17 23:04:35;;;;;;;7.50;4.30;;;6.50;99.90;;;;;;20817126;28;20113;-78
2021/04/17 23:14:38;;;;;;;9.98;5.72;;;6.50;99.90;;;;;;20789411;28;20115;-78
2021/04/17 23:24:39;;;;;;;9.75;5.45;;;6.50;99.90;;;;;;20808212;28;20621;-78
2021/04/17 23:34:40;;;;;;;7.40;4.33;;;6.40;99.90;;;;;;20783946;28;20068;-78
2021/04/17 23:44:41;;;;;;;10.83;6.30;;;6.30;99.90;;;;;;20766678;28;20144;-78
2021/04/17 23:54:41;;;;;;;11.30;5.87;;;6.20;99.90;;;;;;20764492;28;20104;-78
